Time;durP1;ratioP1;P1;durP2;ratioP2;P2;SDS_P1;SDS_P2;PMS_P1;PMS_P2;Temp;Humidity;BMP_temperature;BMP_pressure;BME280_temperature;BME280_humidity;BME280_pressure;Samples;Min_cycle;Max_cycle;Signal;HPM_P1;HPM_P2
2023/01/10 00:00:17;;;;;;;65.40;38.20;;;;;;;5.01;83.25;99452.41;130050;1269;114776;-64
2023/01/10 00:03:39;;;;;;;68.70;38.40;;;;;;;5.00;83.29;99456.84;130035;1268;114693;-62
2023/01/10 00:06:41;;;;;;;69.00;38.50;;;;;;;5.00;83.31;99457.57;130138;1259;114740;-64
2023/01/10 00:09:44;;;;;;;75.00;41.10;;;;;;;5.00;83.25;99456.67;129979;1258;114707;-63
2023/01/10 00:16:07;;;;;;;67.20;37.80;;;;;;;4.99;83.22;99459.73;129992;1258;115167;-62
2023/01/10 00:19:09;;;;;;;68.50;38.70;;;;;;;4.97;83.33;99460.84;130129;1274;114706;-62
2023/01/10 00:22:12;;;;;;;67.00;39.80;;;;;;;4.96;83.17;99464.98;130232;1276;114757;-61
2023/01/10 00:25:14;;;;;;;73.50;40.20;;;;;;;4.94;83.20;99467.36;129940;1274;114678;-61
2023/01/10 00:28:19;;;;;;;70.20;39.20;;;;;;;4.93;83.17;99467.23;130035;1276;128773;-61
2023/01/10 00:31:21;;;;;;;;;;;;;;;4.94;83.33;99473.95;129970;1276;114712;-60
2023/01/10 00:34:24;;;;;;;67.30;37.00;;;;;;;4.92;83.22;99472.60;129922;1276;114757;-60
2023/01/10 00:37:26;;;;;;;61.50;36.50;;;;;;;4.91;83.44;99479.35;130129;1258;115296;-66
2023/01/10 00:40:28;;;;;;;70.10;36.30;;;;;;;4.90;83.20;99480.80;129912;1276;114701;-63
2023/01/10 00:46:52;;;;;;;60.20;35.30;;;;;;;4.89;83.45;99483.52;129825;1276;127675;-61
2023/01/10 00:49:54;;;;;;;65.90;37.50;;;;;;;4.87;83.22;99485.17;129960;1259;115058;-61
2023/01/10 00:52:57;;;;;;;65.60;38.20;;;;;;;4.86;83.12;99488.94;130029;1257;115278;-60
2023/01/10 00:55:59;;;;;;;68.80;37.10;;;;;;;4.84;83.27;99490.06;130230;1258;114702;-61
2023/01/10 00:59:01;;;;;;;65.70;37.60;;;;;;;4.82;83.32;99494.02;130220;1260;114889;-61
2023/01/10 01:02:03;;;;;;;66.60;36.30;;;;;;;4.81;83.39;99502.04;129965;1276;114853;-61
2023/01/10 01:05:06;;;;;;;64.90;36.60;;;;;;;4.80;83.36;99506.50;130014;1274;115312;-61
2023/01/10 01:08:10;;;;;;;60.70;36.50;;;;;;;4.79;83.40;99508.67;129860;1274;127908;-60
2023/01/10 01:11:12;;;;;;;65.10;35.60;;;;;;;4.78;83.42;99509.07;129933;1276;115247;-60
2023/01/10 01:14:14;;;;;;;71.50;35.50;;;;;;;4.77;83.23;99519.02;129997;1265;115075;-61
2023/01/10 01:17:17;;;;;;;62.00;35.30;;;;;;;4.76;83.44;99523.83;129904;1276;114823;-61
2023/01/10 01:20:20;;;;;;;57.80;33.70;;;;;;;4.76;83.14;99531.27;129964;1276;115343;-61
2023/01/10 01:23:23;;;;;;;61.10;34.80;;;;;;;4.75;83.28;99531.81;129832;1276;114694;-59
2023/01/10 01:26:25;;;;;;;67.10;35.20;;;;;;;4.75;83.44;99535.17;130065;1276;114699;-60
2023/01/10 01:29:28;;;;;;;58.00;33.10;;;;;;;4.74;83.37;99532.17;129907;1276;114711;-60
2023/01/10 01:32:30;;;;;;;64.60;37.00;;;;;;;4.74;83.39;99535.91;129953;1276;114719;-61
2023/01/10 01:35:32;;;;;;;64.60;36.30;;;;;;;4.73;83.44;99539.14;130029;1257;114673;-61
2023/01/10 01:38:39;;;;;;;67.30;36.40;;;;;;;4.72;83.52;99541.83;129965;1256;114799;-60
2023/01/10 01:41:59;;;;;;;64.60;37.70;;;;;;;4.72;83.41;99545.89;129937;1259;114697;-60
2023/01/10 01:45:21;;;;;;;69.70;37.50;;;;;;;4.71;83.48;99544.18;129970;1276;127953;-60
2023/01/10 01:48:38;;;;;;;57.80;34.70;;;;;;;4.70;83.38;99544.55;129658;1276;115198;-60
2023/01/10 01:51:44;;;;;;;59.50;32.50;;;;;;;4.69;83.45;99543.17;129960;1256;114897;-60
2023/01/10 01:54:47;;;;;;;56.40;32.40;;;;;;;4.69;83.51;99548.30;129993;1258;114867;-61
2023/01/10 01:57:54;;;;;;;58.40;32.20;;;;;;;4.69;83.55;99550.23;130022;1276;114717;-60
2023/01/10 02:00:57;;;;;;;59.80;34.40;;;;;;;4.70;83.50;99549.67;129919;1258;348013;-62
2023/01/10 02:04:09;;;;;;;62.80;35.20;;;;;;;4.70;83.45;99551.44;130147;1259;115378;-62
2023/01/10 02:07:12;;;;;;;60.50;36.50;;;;;;;4.71;83.49;99553.89;130102;1259;114728;-61
2023/01/10 02:10:18;;;;;;;63.80;35.30;;;;;;;4.72;83.66;99556.48;130148;1256;114811;-61
2023/01/10 02:13:23;;;;;;;63.00;35.70;;;;;;;4.72;83.62;99557.75;129760;1276;116423;-61
2023/01/10 02:16:25;;;;;;;57.10;35.10;;;;;;;4.71;83.45;99560.42;129811;1261;127615;-61
2023/01/10 02:19:46;;;;;;;64.70;36.20;;;;;;;4.70;83.38;99560.65;129914;1273;114801;-61
2023/01/10 02:23:19;;;;;;;61.30;35.20;;;;;;;4.68;83.42;99563.35;129877;1257;115117;-61
2023/01/10 02:26:43;;;;;;;65.40;37.00;;;;;;;4.65;83.35;99567.34;129987;1266;114700;-60
2023/01/10 02:30:15;;;;;;;66.10;36.00;;;;;;;4.61;83.07;99565.75;129894;1260;114782;-60
2023/01/10 02:33:33;;;;;;;61.00;35.20;;;;;;;4.57;83.08;99575.80;129807;1270;128609;-62
2023/01/10 02:37:06;;;;;;;55.10;32.20;;;;;;;4.52;83.12;99575.62;130137;1253;115249;-62
2023/01/10 02:40:18;;;;;;;55.30;33.90;;;;;;;4.47;83.04;99584.48;129860;1257;115187;-62
2023/01/10 02:43:24;;;;;;;64.20;33.20;;;;;;;4.42;83.06;99588.71;129943;1276;114777;-61
2023/01/10 02:46:28;;;;;;;60.00;35.10;;;;;;;4.37;82.87;99593.84;129751;1261;114770;-61
2023/01/10 02:49:41;;;;;;;58.80;33.60;;;;;;;4.32;83.04;99601.63;129944;1273;128507;-62
2023/01/10 02:52:43;;;;;;;56.70;33.60;;;;;;;4.27;82.99;99608.34;130001;1258;115172;-61
2023/01/10 02:55:58;;;;;;;59.40;32.40;;;;;;;4.22;83.00;99616.08;129998;1275;114626;-62
2023/01/10 02:59:14;;;;;;;57.10;33.80;;;;;;;4.18;83.05;99625.60;129795;1259;115127;-61
2023/01/10 03:02:20;;;;;;;61.80;36.40;;;;;;;4.14;83.07;99630.33;129917;1277;115052;-62
2023/01/10 03:05:49;;;;;;;61.50;35.20;;;;;;;4.11;83.03;99629.38;129765;1265;127677;-61
2023/01/10 03:09:13;;;;;;;69.10;36.50;;;;;;;4.07;83.12;99635.69;129894;1259;115185;-63
2023/01/10 03:12:30;;;;;;;58.40;34.20;;;;;;;4.04;83.11;99643.05;129674;1276;114794;-61
2023/01/10 03:15:35;;;;;;;60.40;36.50;;;;;;;4.02;83.23;99648.60;129587;1276;114876;-61
2023/01/10 03:18:42;;;;;;;64.50;37.10;;;;;;;4.00;83.31;99654.29;130058;1276;114730;-61
2023/01/10 03:21:46;;;;;;;70.60;39.50;;;;;;;4.00;83.28;99659.27;130044;1255;128912;-63
2023/01/10 03:24:51;;;;;;;65.50;38.20;;;;;;;4.00;83.41;99659.42;130082;1276;114721;-61
2023/01/10 03:28:07;;;;;;;68.10;39.40;;;;;;;4.00;83.48;99668.63;130082;1259;114717;-61
2023/01/10 03:31:16;;;;;;;69.10;41.00;;;;;;;4.01;83.57;99677.95;130163;1276;114712;-61
2023/01/10 03:34:19;;;;;;;67.20;38.20;;;;;;;4.04;83.68;99687.77;130114;1276;114713;-61
2023/01/10 03:37:43;;;;;;;65.40;38.70;;;;;;;4.05;83.71;99691.27;130137;1253;114774;-61
2023/01/10 03:41:30;;;;;;;59.20;37.40;;;;;;;4.08;83.77;99699.46;130141;1258;115256;-62
2023/01/10 03:45:00;;;;;;;65.60;37.10;;;;;;;4.10;83.79;99704.16;129780;1259;114768;-63
2023/01/10 03:48:04;;;;;;;75.50;36.80;;;;;;;4.13;83.91;99706.72;130100;1268;114838;-61
2023/01/10 03:51:07;;;;;;;62.90;36.20;;;;;;;4.16;83.75;99707.49;130026;1257;114777;-61
2023/01/10 03:54:10;;;;;;;60.80;34.10;;;;;;;4.19;83.67;99710.94;130152;1276;115299;-62
2023/01/10 03:57:22;;;;;;;56.20;33.80;;;;;;;4.22;83.83;99716.67;130077;1257;114708;-63
2023/01/10 04:00:24;;;;;;;59.30;33.30;;;;;;;4.25;83.89;99722.40;129874;1269;115376;-62
2023/01/10 04:03:27;;;;;;;53.70;30.30;;;;;;;4.29;84.01;99730.07;130176;1259;115605;-63
2023/01/10 04:06:29;;;;;;;53.30;31.80;;;;;;;4.32;83.83;99734.75;130078;1274;115214;-62
2023/01/10 04:09:32;;;;;;;52.30;30.10;;;;;;;4.35;83.98;99731.48;130045;1276;114768;-62
2023/01/10 04:12:35;;;;;;;48.70;28.10;;;;;;;4.38;83.90;99737.38;130157;1264;115605;-63
2023/01/10 04:15:37;;;;;;;47.40;27.30;;;;;;;4.39;84.01;99739.26;130149;1276;115274;-62
2023/01/10 04:18:39;;;;;;;45.10;25.80;;;;;;;4.40;83.90;99742.40;130039;1276;114709;-62
2023/01/10 04:21:45;;;;;;;45.60;24.30;;;;;;;4.43;83.82;99746.41;130175;1276;114745;-65
2023/01/10 04:24:50;;;;;;;;;;;;;;;4.45;83.99;99744.56;130022;1257;114738;-62
2023/01/10 04:27:52;;;;;;;36.00;20.70;;;;;;;4.46;83.87;99753.90;129781;1276;128629;-61
2023/01/10 04:30:54;;;;;;;36.70;21.60;;;;;;;4.48;83.86;99763.20;130127;1276;115201;-60
2023/01/10 04:33:57;;;;;;;38.90;21.70;;;;;;;4.50;83.95;99770.38;130264;1257;114671;-61
2023/01/10 04:36:59;;;;;;;37.00;19.70;;;;;;;4.52;83.91;99777.23;130237;1254;114760;-61
2023/01/10 04:40:01;;;;;;;35.50;20.10;;;;;;;4.54;83.95;99781.40;129691;1276;114798;-60
2023/01/10 04:43:04;;;;;;;36.40;19.90;;;;;;;4.56;84.03;99786.80;130067;1276;114764;-61
2023/01/10 04:46:06;;;;;;;39.40;18.30;;;;;;;4.59;83.83;99795.20;130023;1270;114764;-65
2023/01/10 04:49:09;;;;;;;27.20;17.20;;;;;;;4.61;83.85;99800.81;130043;1265;114730;-62
2023/01/10 04:52:11;;;;;;;28.70;17.30;;;;;;;4.63;84.11;99810.27;129853;1259;115266;-62
2023/01/10 04:55:14;;;;;;;27.90;17.80;;;;;;;4.66;84.08;99815.67;130182;1257;115336;-61
2023/01/10 04:58:16;;;;;;;32.70;17.00;;;;;;;4.68;83.93;99817.55;130127;1253;114779;-71
2023/01/10 05:01:21;;;;;;;29.60;16.30;;;;;;;4.71;84.22;99822.93;130253;1276;114763;-70
2023/01/10 05:04:24;;;;;;;29.80;15.60;;;;;;;4.73;84.13;99829.08;130197;1276;114661;-69
2023/01/10 05:07:27;;;;;;;28.00;15.70;;;;;;;4.76;84.07;99832.14;130191;1276;114777;-62
2023/01/10 05:10:29;;;;;;;22.80;14.50;;;;;;;4.78;84.05;99830.32;130089;1276;114778;-67
2023/01/10 05:13:32;;;;;;;23.80;14.10;;;;;;;4.79;83.84;99834.88;130021;1266;114692;-64
2023/01/10 05:16:35;;;;;;;24.40;14.40;;;;;;;4.80;83.82;99837.86;130046;1275;115048;-63
2023/01/10 05:19:37;;;;;;;24.20;13.80;;;;;;;4.81;83.86;99841.89;130035;1264;114742;-62
2023/01/10 05:22:39;;;;;;;22.90;12.50;;;;;;;4.82;83.90;99846.27;129937;1254;115299;-63
2023/01/10 05:25:42;;;;;;;23.00;12.10;;;;;;;4.82;83.73;99851.92;130078;1266;114759;-63
2023/01/10 05:28:44;;;;;;;22.30;11.70;;;;;;;4.84;83.78;99857.18;129982;1255;128798;-62
2023/01/10 05:31:50;;;;;;;21.20;11.30;;;;;;;4.84;83.87;99861.08;129996;1259;114991;-65
2023/01/10 05:34:53;;;;;;;19.40;10.60;;;;;;;4.85;83.75;99872.18;129817;1258;114851;-66
2023/01/10 05:37:55;;;;;;;17.90;9.70;;;;;;;4.86;83.87;99876.40;129995;1256;114696;-67
2023/01/10 05:40:58;;;;;;;17.40;9.90;;;;;;;4.88;83.74;99883.78;129927;1276;114693;-63
2023/01/10 05:44:00;;;;;;;16.50;8.60;;;;;;;4.89;83.70;99887.45;129960;1266;114680;-66
2023/01/10 05:47:03;;;;;;;15.60;8.70;;;;;;;4.90;83.82;99889.71;130046;1267;114699;-65
2023/01/10 05:50:06;;;;;;;14.90;8.00;;;;;;;4.92;83.82;99893.55;129842;1270;114786;-65
2023/01/10 05:53:08;;;;;;;13.80;7.70;;;;;;;4.93;83.68;99898.84;130006;1256;114774;-65
2023/01/10 05:56:10;;;;;;;14.10;7.50;;;;;;;4.94;83.87;99903.04;129880;1257;114755;-66
2023/01/10 05:59:12;;;;;;;15.00;7.80;;;;;;;4.95;83.61;99908.68;129964;1276;114776;-62
2023/01/10 06:02:14;;;;;;;12.50;7.10;;;;;;;4.96;83.70;99918.20;129897;1276;115301;-66
2023/01/10 06:05:17;;;;;;;11.20;6.90;;;;;;;4.97;83.68;99923.27;129842;1276;114758;-68
2023/01/10 06:08:19;;;;;;;13.70;7.00;;;;;;;4.98;83.86;99927.31;130055;1276;114779;-63
2023/01/10 06:11:27;;;;;;;12.20;7.00;;;;;;;4.99;83.70;99932.05;129777;1276;115237;-61
2023/01/10 06:14:30;;;;;;;13.60;7.10;;;;;;;5.00;83.52;99937.70;129891;1260;115083;-67
2023/01/10 06:17:32;;;;;;;12.50;7.60;;;;;;;5.00;83.51;99936.63;130047;1257;114693;-61
2023/01/10 06:20:34;;;;;;;15.70;7.00;;;;;;;5.01;83.50;99945.63;130123;1276;114770;-67
2023/01/10 06:23:38;;;;;;;13.20;7.90;;;;;;;5.02;83.52;99951.80;129870;1260;116275;-67
2023/01/10 06:26:40;;;;;;;13.80;7.60;;;;;;;5.02;83.59;99956.05;129863;1276;129587;-64
2023/01/10 06:29:42;;;;;;;15.10;7.50;;;;;;;5.02;83.71;99965.95;130058;1276;114729;-62
2023/01/10 06:32:44;;;;;;;14.50;7.90;;;;;;;5.04;83.51;99972.30;130089;1258;115206;-63
2023/01/10 06:35:47;;;;;;;10.30;6.80;;;;;;;5.04;83.54;99982.37;129985;1255;114782;-67
2023/01/10 06:38:50;;;;;;;11.50;7.80;;;;;;;5.04;83.55;99985.55;129995;1259;115387;-64
2023/01/10 06:41:52;;;;;;;11.30;8.50;;;;;;;5.05;83.76;99989.77;129962;1276;114706;-65
2023/01/10 06:44:54;;;;;;;16.40;8.00;;;;;;;5.04;83.36;99996.17;129970;1274;114704;-63
2023/01/10 06:47:56;;;;;;;14.30;8.40;;;;;;;5.03;83.47;100005.39;129632;1274;128454;-63
2023/01/10 06:50:59;;;;;;;15.20;8.20;;;;;;;5.04;83.47;100012.64;129968;1254;116376;-68
2023/01/10 06:54:01;;;;;;;13.50;8.20;;;;;;;5.02;83.38;100022.59;130063;1257;114783;-62
2023/01/10 06:57:03;;;;;;;9.60;7.60;;;;;;;5.03;83.40;100032.15;130022;1257;115346;-67
2023/01/10 07:00:09;;;;;;;16.80;9.30;;;;;;;5.02;83.40;100036.41;130125;1273;114684;-63
2023/01/10 07:03:11;;;;;;;14.20;8.70;;;;;;;5.03;83.44;100042.77;129957;1258;114699;-67
2023/01/10 07:06:14;;;;;;;15.30;9.40;;;;;;;5.02;83.36;100049.67;129911;1274;114732;-64
2023/01/10 07:09:16;;;;;;;16.10;8.80;;;;;;;5.01;83.36;100054.46;130068;1266;115277;-61
2023/01/10 07:12:19;;;;;;;15.20;9.30;;;;;;;5.02;83.27;100059.59;130079;1254;114744;-67
2023/01/10 07:15:21;;;;;;;14.80;8.60;;;;;;;5.03;83.27;100065.77;129882;1260;114970;-68
2023/01/10 07:18:24;;;;;;;12.80;8.50;;;;;;;5.04;83.16;100069.99;130011;1257;115134;-65
2023/01/10 07:21:26;;;;;;;18.40;9.70;;;;;;;5.06;83.36;100072.20;129915;1266;114777;-68
2023/01/10 07:24:28;;;;;;;12.50;8.70;;;;;;;5.08;83.31;100077.66;130041;1258;114730;-62
2023/01/10 07:27:31;;;;;;;12.70;7.90;;;;;;;5.09;83.42;100079.55;129980;1266;128836;-68
2023/01/10 07:30:33;;;;;;;14.20;8.90;;;;;;;5.11;83.29;100081.98;129962;1258;114953;-64
2023/01/10 07:33:36;;;;;;;13.40;8.30;;;;;;;5.12;83.27;100085.85;129940;1266;114774;-68
2023/01/10 07:36:38;;;;;;;13.30;8.00;;;;;;;5.13;83.41;100088.99;130054;1254;114695;-65
2023/01/10 07:39:41;;;;;;;11.00;7.20;;;;;;;5.14;83.31;100098.33;130065;1258;114697;-67
2023/01/10 07:42:43;;;;;;;13.00;7.60;;;;;;;5.15;83.08;100101.49;129933;1276;115008;-63
2023/01/10 07:45:46;;;;;;;12.10;7.20;;;;;;;5.17;83.22;100108.17;129928;1273;114785;-67
2023/01/10 07:48:48;;;;;;;40.00;19.60;;;;;;;5.19;83.36;100117.31;130062;1270;114732;-66
2023/01/10 07:51:50;;;;;;;23.40;12.90;;;;;;;5.20;83.33;100119.93;129991;1276;115127;-65
2023/01/10 07:54:53;;;;;;;18.70;10.70;;;;;;;5.23;83.26;100126.57;129946;1270;115039;-63
2023/01/10 07:57:55;;;;;;;14.40;9.20;;;;;;;5.23;83.10;100128.88;129985;1276;114768;-65
2023/01/10 08:00:59;;;;;;;12.90;9.20;;;;;;;5.25;83.06;100131.30;130075;1254;114705;-67
2023/01/10 08:04:01;;;;;;;13.80;10.10;;;;;;;5.28;83.44;100138.12;130028;1276;114799;-66
2023/01/10 08:07:04;;;;;;;15.20;9.30;;;;;;;5.31;83.46;100143.51;129922;1253;114715;-64
2023/01/10 08:10:07;;;;;;;14.80;9.40;;;;;;;5.34;83.30;100148.73;130023;1276;114765;-66
2023/01/10 08:13:09;;;;;;;12.50;8.80;;;;;;;5.37;83.26;100153.77;130019;1257;115488;-62
2023/01/10 08:16:14;;;;;;;12.00;8.30;;;;;;;5.39;83.11;100157.07;130094;1274;114714;-67
2023/01/10 08:19:17;;;;;;;12.90;8.30;;;;;;;5.43;83.30;100166.52;130010;1266;114734;-65
2023/01/10 08:22:19;;;;;;;16.60;8.60;;;;;;;5.47;83.31;100170.11;130085;1273;114719;-66
2023/01/10 08:25:21;;;;;;;13.20;8.10;;;;;;;5.50;83.42;100174.99;129960;1266;115078;-63
2023/01/10 08:28:23;;;;;;;15.20;8.70;;;;;;;5.51;83.12;100178.50;130007;1276;115336;-67
2023/01/10 08:31:26;;;;;;;16.10;9.30;;;;;;;5.55;83.22;100181.03;130008;1257;115244;-63
2023/01/10 08:34:28;;;;;;;13.90;9.40;;;;;;;5.57;83.09;100184.34;129997;1258;114707;-64
2023/01/10 08:37:30;;;;;;;15.20;8.90;;;;;;;5.60;83.19;100182.11;129974;1276;114748;-69
2023/01/10 08:40:33;;;;;;;14.20;8.70;;;;;;;5.67;83.09;100181.56;130113;1254;114732;-70
2023/01/10 08:43:35;;;;;;;12.80;8.40;;;;;;;5.73;83.24;100188.46;130314;1257;114767;-70
2023/01/10 08:46:37;;;;;;;18.80;9.90;;;;;;;5.79;83.13;100187.75;130259;1257;114719;-69
2023/01/10 08:49:39;;;;;;;12.70;7.80;;;;;;;5.84;83.22;100188.66;130340;1259;115023;-69
2023/01/10 08:52:41;;;;;;;17.80;8.60;;;;;;;5.87;82.88;100187.99;130286;1268;115483;-68
2023/01/10 08:55:43;;;;;;;14.10;8.70;;;;;;;5.91;82.76;100192.49;130277;1254;114763;-70
2023/01/10 08:58:45;;;;;;;12.50;9.10;;;;;;;5.95;82.98;100198.08;130305;1266;114731;-74
2023/01/10 09:01:47;;;;;;;14.50;8.10;;;;;;;5.98;82.76;100202.73;130284;1259;114728;-70
2023/01/10 09:04:50;;;;;;;15.60;10.10;;;;;;;6.01;82.72;100209.41;130257;1276;114773;-74
2023/01/10 09:07:53;;;;;;;17.80;10.00;;;;;;;6.04;82.59;100212.66;130344;1254;114785;-72
2023/01/10 09:10:58;;;;;;;15.60;10.70;;;;;;;6.09;82.63;100213.23;130288;1257;128848;-68
2023/01/10 09:14:00;;;;;;;17.60;9.90;;;;;;;6.14;82.59;100218.39;130263;1261;115190;-68
2023/01/10 09:17:02;;;;;;;22.70;10.60;;;;;;;6.20;82.73;100224.23;130269;1254;115193;-68
2023/01/10 09:20:08;;;;;;;16.10;9.50;;;;;;;6.26;82.52;100225.09;130282;1257;114688;-69
2023/01/10 09:23:16;;;;;;;18.10;10.70;;;;;;;6.31;82.40;100232.37;130438;1257;114728;-69
2023/01/10 09:26:18;;;;;;;15.50;9.10;;;;;;;6.36;82.37;100238.42;129941;1275;114705;-67
2023/01/10 09:29:21;;;;;;;15.80;9.00;;;;;;;6.43;82.44;100239.61;129954;1276;114792;-67
2023/01/10 09:32:23;;;;;;;16.80;8.60;;;;;;;6.49;82.27;100243.84;129897;1268;115167;-65
2023/01/10 09:35:27;;;;;;;15.10;9.50;;;;;;;6.56;82.45;100247.00;130018;1273;114723;-65
2023/01/10 09:38:29;;;;;;;17.30;9.20;;;;;;;6.61;82.22;100253.55;129807;1257;114940;-65
2023/01/10 09:41:49;;;;;;;15.70;8.70;;;;;;;6.67;81.92;100257.09;130003;1257;115382;-66
2023/01/10 09:45:15;;;;;;;14.50;8.00;;;;;;;6.72;82.00;100256.71;129794;1278;114876;-67
2023/01/10 09:48:36;;;;;;;17.00;10.30;;;;;;;6.79;81.76;100260.77;129940;1276;129316;-68
2023/01/10 09:51:50;;;;;;;17.90;12.00;;;;;;;6.85;81.74;100263.57;129922;1262;116010;-68
2023/01/10 09:54:54;;;;;;;24.00;12.30;;;;;;;6.95;81.74;100265.71;130062;1260;114821;-69
2023/01/10 09:57:59;;;;;;;23.20;11.90;;;;;;;7.04;81.63;100273.20;129727;1261;114779;-67
2023/01/10 10:01:14;;;;;;;21.50;10.90;;;;;;;7.11;81.48;100278.27;129517;1264;114882;-67
2023/01/10 10:04:21;;;;;;;;;;;;;;;7.15;81.39;100283.81;129884;1275;128109;-65
2023/01/10 10:07:24;;;;;;;30.00;16.20;;;;;;;7.18;81.23;100289.95;130004;1257;115173;-65
2023/01/10 10:10:47;;;;;;;28.70;14.30;;;;;;;7.22;81.36;100293.87;130246;1253;115075;-65
2023/01/10 10:14:13;;;;;;;18.80;11.10;;;;;;;7.28;81.40;100297.23;129907;1270;116370;-64
2023/01/10 10:17:26;;;;;;;28.80;14.30;;;;;;;7.36;81.37;100300.84;129994;1257;114696;-64
2023/01/10 10:21:01;;;;;;;30.20;14.10;;;;;;;7.44;81.10;100305.70;130043;1258;128913;-64
2023/01/10 10:24:37;;;;;;;22.70;11.40;;;;;;;7.49;81.15;100306.95;129217;1267;115133;-65
2023/01/10 10:27:44;;;;;;;25.20;12.40;;;;;;;7.52;80.87;100305.44;129253;1260;114873;-65
2023/01/10 10:30:49;;;;;;;21.30;11.80;;;;;;;7.57;80.89;100311.46;129065;1275;114757;-67
2023/01/10 10:34:22;;;;;;;16.80;9.70;;;;;;;7.63;80.92;100314.05;129187;1264;114812;-66
2023/01/10 10:37:32;;;;;;;20.10;9.70;;;;;;;7.70;80.74;100317.73;129043;1282;127956;-66
2023/01/10 10:40:38;;;;;;;38.20;14.90;;;;;;;7.72;80.35;100319.60;129282;1259;115210;-67
2023/01/10 10:43:41;;;;;;;32.10;13.90;;;;;;;7.76;80.32;100321.43;129118;1266;115064;-65
2023/01/10 10:46:43;;;;;;;17.10;8.40;;;;;;;7.80;80.27;100320.04;129444;1272;114765;-68
2023/01/10 10:49:51;;;;;;;20.80;9.60;;;;;;;7.82;80.27;100322.63;129828;1262;115225;-66
2023/01/10 10:52:54;;;;;;;29.10;11.80;;;;;;;7.85;80.11;100321.99;129396;1265;128259;-66
2023/01/10 10:55:56;;;;;;;64.90;22.80;;;;;;;7.86;79.82;100329.04;129413;1264;114825;-67
2023/01/10 10:58:59;;;;;;;47.00;17.00;;;;;;;7.88;80.03;100328.09;129588;1262;114963;-66
2023/01/10 11:02:02;;;;;;;63.60;22.20;;;;;;;7.92;80.03;100326.34;129939;1257;114677;-67
2023/01/10 11:05:12;;;;;;;51.80;18.40;;;;;;;7.94;80.02;100320.41;130002;1267;114780;-68
2023/01/10 11:08:16;;;;;;;42.10;14.90;;;;;;;7.98;79.51;100318.09;129840;1257;114769;-67
2023/01/10 11:11:22;;;;;;;41.70;16.40;;;;;;;8.04;79.60;100316.60;129649;1266;128071;-68
2023/01/10 11:14:50;;;;;;;29.50;11.40;;;;;;;8.10;79.11;100311.98;129862;1275;115148;-67
2023/01/10 11:18:05;;;;;;;58.10;22.50;;;;;;;8.13;79.61;100313.60;130308;1257;114840;-67
2023/01/10 11:21:11;;;;;;;48.10;18.40;;;;;;;8.15;78.95;100317.63;130527;1257;114701;-70
2023/01/10 11:24:29;;;;;;;27.50;12.60;;;;;;;8.13;78.80;100319.13;129942;1261;116367;-68
2023/01/10 11:27:43;;;;;;;27.40;13.30;;;;;;;8.15;78.72;100325.11;129870;1256;128060;-64
2023/01/10 11:30:47;;;;;;;16.70;8.90;;;;;;;8.19;78.78;100322.98;129860;1275;115202;-68
2023/01/10 11:33:49;;;;;;;20.90;13.00;;;;;;;8.24;79.17;100324.02;130001;1257;114684;-67
2023/01/10 11:37:00;;;;;;;15.10;9.50;;;;;;;8.30;78.93;100330.36;129988;1273;114738;-66
2023/01/10 11:40:24;;;;;;;12.70;8.10;;;;;;;8.34;79.05;100337.50;130073;1275;114706;-67
2023/01/10 11:43:32;;;;;;;17.70;8.40;;;;;;;8.39;78.77;100337.14;129964;1275;127913;-67
2023/01/10 11:46:35;;;;;;;20.30;10.70;;;;;;;8.43;78.81;100339.51;130112;1268;115187;-67
2023/01/10 11:49:39;;;;;;;10.90;7.40;;;;;;;8.46;78.80;100333.84;130339;1268;114694;-68
2023/01/10 11:52:45;;;;;;;15.10;7.80;;;;;;;8.50;78.67;100342.59;130284;1273;114710;-69
2023/01/10 11:55:47;;;;;;;19.30;8.20;;;;;;;8.50;78.07;100348.82;130054;1272;114780;-67
2023/01/10 11:58:50;;;;;;;14.50;10.20;;;;;;;8.48;78.15;100351.92;130319;1257;114735;-68
2023/01/10 12:01:59;;;;;;;16.50;9.20;;;;;;;8.48;78.20;100355.33;130279;1259;115270;-70
2023/01/10 12:05:06;;;;;;;17.00;8.80;;;;;;;8.47;77.84;100360.16;130498;1257;114726;-67
2023/01/10 12:08:23;;;;;;;19.40;9.80;;;;;;;8.47;77.97;100366.02;129859;1256;114758;-64
2023/01/10 12:11:31;;;;;;;15.20;6.90;;;;;;;8.48;77.81;100367.79;129963;1259;114715;-68
2023/01/10 12:14:33;;;;;;;11.50;7.20;;;;;;;8.50;78.06;100373.75;130492;1254;128532;-67
2023/01/10 12:17:36;;;;;;;14.80;7.80;;;;;;;8.53;78.01;100376.66;130023;1256;115224;-67
2023/01/10 12:20:46;;;;;;;27.10;11.30;;;;;;;8.54;77.71;100378.42;130039;1257;115191;-66
2023/01/10 12:23:49;;;;;;;17.30;8.70;;;;;;;8.52;77.40;100379.56;129960;1273;114696;-67
2023/01/10 12:26:52;;;;;;;11.10;7.50;;;;;;;8.50;77.46;100374.64;130055;1269;114725;-65
2023/01/10 12:30:31;;;;;;;16.00;8.50;;;;;;;8.50;77.75;100375.89;129943;1275;127923;-67
2023/01/10 12:33:40;;;;;;;15.10;8.20;;;;;;;8.49;77.32;100389.64;130008;1269;115292;-68
2023/01/10 12:36:53;;;;;;;14.00;8.00;;;;;;;8.47;77.58;100394.14;129718;1260;114955;-61
2023/01/10 12:40:01;;;;;;;13.50;8.00;;;;;;;8.47;77.66;100399.30;129781;1257;114713;-59
2023/01/10 12:46:48;;;;;;;17.80;8.40;;;;;;;8.42;77.22;100406.45;129920;1258;128434;-59
2023/01/10 12:50:00;;;;;;;11.10;7.50;;;;;;;8.38;76.94;100408.36;129772;1276;115167;-59
2023/01/10 12:53:10;;;;;;;17.70;8.80;;;;;;;8.37;77.37;100417.83;129786;1260;114805;-61
2023/01/10 12:56:14;;;;;;;15.90;7.40;;;;;;;8.38;77.55;100417.46;129999;1255;115131;-59
2023/01/10 12:59:20;;;;;;;18.60;7.60;;;;;;;8.33;77.40;100417.63;129789;1276;116406;-60
2023/01/10 13:02:25;;;;;;;14.20;7.50;;;;;;;8.24;76.70;100422.23;130005;1276;128625;-59
2023/01/10 13:05:31;;;;;;;15.50;8.20;;;;;;;8.14;77.10;100433.13;129996;1253;115197;-58
2023/01/10 13:08:33;;;;;;;;;;;;;;;8.08;77.42;100440.29;129754;1258;115129;-59
2023/01/10 13:12:01;;;;;;;18.60;10.70;;;;;;;8.05;77.22;100443.75;130000;1257;114853;-59
2023/01/10 13:15:26;;;;;;;17.30;9.80;;;;;;;8.03;77.29;100438.33;129847;1258;114895;-59
2023/01/10 13:18:30;;;;;;;16.00;8.40;;;;;;;8.02;77.29;100439.08;129926;1254;128582;-59
2023/01/10 13:21:33;;;;;;;13.40;8.20;;;;;;;7.99;77.32;100439.52;129710;1276;115230;-60
2023/01/10 13:24:36;;;;;;;13.70;8.70;;;;;;;7.94;77.50;100447.02;129710;1254;114868;-60
2023/01/10 13:27:42;;;;;;;11.00;6.50;;;;;;;7.87;77.21;100454.73;129996;1257;114745;-58
2023/01/10 13:30:51;;;;;;;15.80;9.00;;;;;;;7.77;77.20;100461.67;130027;1257;115068;-60
2023/01/10 13:33:59;;;;;;;18.30;10.20;;;;;;;7.66;77.08;100471.10;130018;1257;128948;-60
2023/01/10 13:37:12;;;;;;;17.60;8.70;;;;;;;7.57;77.51;100477.99;130161;1276;115154;-60
2023/01/10 13:40:27;;;;;;;20.60;10.90;;;;;;;7.51;77.47;100484.08;130098;1258;114882;-61
2023/01/10 13:43:33;;;;;;;25.10;12.30;;;;;;;7.42;77.95;100489.33;130121;1253;114794;-60
2023/01/10 13:46:37;;;;;;;29.80;14.30;;;;;;;7.39;78.07;100491.04;129769;1272;114807;-59
2023/01/10 13:49:42;;;;;;;30.90;15.20;;;;;;;7.36;78.30;100493.66;130043;1276;128716;-59
2023/01/10 13:52:44;;;;;;;33.60;15.60;;;;;;;7.33;78.73;100501.01;129721;1266;114872;-61
2023/01/10 13:55:52;;;;;;;35.80;16.70;;;;;;;7.29;78.64;100503.25;130125;1256;114695;-60
2023/01/10 14:02:33;;;;;;;24.80;15.00;;;;;;;7.25;78.90;100510.85;129784;1258;340846;-59
2023/01/10 14:05:36;;;;;;;22.90;14.90;;;;;;;7.23;79.13;100521.41;129947;1276;129388;-60
2023/01/10 14:08:40;;;;;;;24.40;13.00;;;;;;;7.21;79.11;100526.45;130187;1276;114745;-62
2023/01/10 14:11:42;;;;;;;21.50;13.50;;;;;;;7.18;79.22;100535.07;130163;1256;115157;-62
2023/01/10 14:15:20;;;;;;;18.40;10.70;;;;;;;7.13;79.23;100536.61;130127;1276;114785;-61
2023/01/10 14:18:33;;;;;;;18.60;11.10;;;;;;;7.08;79.60;100532.17;130151;1258;114884;-63
2023/01/10 14:21:40;;;;;;;31.00;19.10;;;;;;;7.03;79.38;100538.73;130138;1256;128984;-62